Aviation Digital Data Service (ADDS)

Output produced by METARs form (1226 UTC 19 January 2019)
found at http://www.aviationweather.gov/metar/data/
 
Forecast for: FKKR (GAROUA , CM)
Text: TAF FKKR 190500Z 1906/1918 12006KT 8000 NSC
Forecast period: 0600 to 1800 UTC 19 January 2019
Forecast type: FROM: standard forecast or significant change
Winds: from the ESE (120 degrees) at 7 MPH (6 knots; 3.1 m/s)
Visibility: 5 miles (8 km)
Ceiling: unknown
Clouds: missing
Weather: no significant weather forecast for this period